createdAt,value
2023-02-19T00:00:22.590Z,14.41
2023-02-19T00:02:49.475Z,14.42
2023-02-19T00:05:16.567Z,14.45
2023-02-19T00:07:43.670Z,14.56
2023-02-19T00:10:10.562Z,14.61
2023-02-19T00:12:37.406Z,14.67
2023-02-19T00:15:05.066Z,14.72
2023-02-19T00:17:33.274Z,14.79
2023-02-19T00:20:00.187Z,14.84
2023-02-19T00:22:27.321Z,14.82
2023-02-19T00:24:54.522Z,14.84
2023-02-19T00:27:21.305Z,14.89
2023-02-19T00:29:49.578Z,14.88
2023-02-19T00:32:16.392Z,14.91
2023-02-19T00:34:45.064Z,14.89
2023-02-19T00:37:12.122Z,14.89
2023-02-19T00:39:40.108Z,14.93
2023-02-19T00:42:06.884Z,14.87
2023-02-19T00:44:35.060Z,14.72
2023-02-19T00:47:01.949Z,14.70
2023-02-19T00:49:30.561Z,14.70
2023-02-19T00:52:02.396Z,14.75
2023-02-19T00:54:29.411Z,14.77
2023-02-19T00:56:57.819Z,14.71
2023-02-19T00:59:24.849Z,14.71
2023-02-19T01:01:51.781Z,14.61
2023-02-19T01:04:19.015Z,14.48
2023-02-19T01:06:45.899Z,14.40
2023-02-19T01:09:16.346Z,14.34
2023-02-19T01:11:43.456Z,14.23
2023-02-19T01:14:10.894Z,14.23
2023-02-19T01:16:38.089Z,14.27
2023-02-19T01:19:05.465Z,14.29
2023-02-19T01:21:32.366Z,14.33
2023-02-19T01:24:00.100Z,14.38
2023-02-19T01:26:31.420Z,14.36
2023-02-19T01:28:58.966Z,14.34
2023-02-19T01:31:26.541Z,14.29
2023-02-19T01:33:56.835Z,14.26
2023-02-19T01:36:25.475Z,14.31
2023-02-19T01:38:52.670Z,14.29
2023-02-19T01:41:22.961Z,14.27
2023-02-19T01:44:08.161Z,14.29
2023-02-19T01:46:38.472Z,14.20
2023-02-19T01:49:12.025Z,14.19
2023-02-19T01:51:45.233Z,14.21
2023-02-19T01:54:15.506Z,14.17
2023-02-19T01:56:45.143Z,14.17
2023-02-19T01:59:16.361Z,14.14
2023-02-19T02:04:13.272Z,14.21
2023-02-19T02:06:49.373Z,14.26
2023-02-19T02:09:18.540Z,14.30
2023-02-19T02:11:49.687Z,14.37
2023-02-19T02:14:30.058Z,14.47
2023-02-19T02:17:10.232Z,14.56
2023-02-19T02:20:10.731Z,14.68
2023-02-19T02:22:46.889Z,14.67
2023-02-19T02:25:44.251Z,14.77
2023-02-19T02:28:37.262Z,14.81
2023-02-19T02:31:14.078Z,14.77
2023-02-19T02:33:48.991Z,14.78
2023-02-19T02:36:21.706Z,14.75
2023-02-19T02:38:50.219Z,14.79
2023-02-19T02:41:21.786Z,14.84
2023-02-19T02:43:53.299Z,14.85
2023-02-19T02:46:30.240Z,14.91
2023-02-19T02:49:00.002Z,14.81
2023-02-19T02:51:33.251Z,14.71
2023-02-19T02:54:10.526Z,14.65
2023-02-19T02:56:41.351Z,14.61
2023-02-19T02:59:12.842Z,14.63
2023-02-19T03:01:47.281Z,14.61
2023-02-19T03:04:26.541Z,14.61
2023-02-19T03:06:57.072Z,14.51
2023-02-19T03:09:34.778Z,14.48
2023-02-19T03:12:06.928Z,14.38
2023-02-19T03:14:43.604Z,14.33
2023-02-19T03:17:18.616Z,14.30
2023-02-19T03:19:57.307Z,14.26
2023-02-19T03:22:30.053Z,14.21
2023-02-19T03:25:06.908Z,14.23
2023-02-19T03:27:37.704Z,14.19
2023-02-19T03:30:12.977Z,14.21
2023-02-19T03:32:48.662Z,14.13
2023-02-19T03:35:20.758Z,14.10
2023-02-19T03:37:57.093Z,14.05
2023-02-19T03:40:30.893Z,14.05
2023-02-19T03:43:12.908Z,14.02
2023-02-19T03:45:55.297Z,13.90
2023-02-19T03:48:31.652Z,13.83
2023-02-19T03:51:21.254Z,13.79
2023-02-19T03:53:58.854Z,13.69
2023-02-19T03:56:34.242Z,13.62
2023-02-19T03:59:14.509Z,13.52
2023-02-19T04:01:47.298Z,13.35
2023-02-19T04:04:23.679Z,13.31
2023-02-19T04:06:55.400Z,13.24
2023-02-19T04:09:28.867Z,13.19
2023-02-19T04:12:04.992Z,13.10
2023-02-19T04:14:40.754Z,13.07
2023-02-19T04:17:21.534Z,13.00
2023-02-19T04:19:53.024Z,12.94
2023-02-19T04:22:22.792Z,12.86
2023-02-19T04:24:53.407Z,12.79
2023-02-19T04:27:21.151Z,12.79
2023-02-19T04:29:48.387Z,12.77
2023-02-19T04:32:15.391Z,12.76
2023-02-19T04:34:42.262Z,12.68
2023-02-19T04:37:11.648Z,12.70
2023-02-19T04:39:38.778Z,12.56
2023-02-19T04:42:06.061Z,12.57
2023-02-19T04:44:33.812Z,12.50
2023-02-19T04:47:01.463Z,12.46
2023-02-19T04:49:28.581Z,12.42
2023-02-19T04:51:55.669Z,12.32
2023-02-19T04:54:24.097Z,12.37
2023-02-19T04:56:50.987Z,12.40
2023-02-19T04:59:18.689Z,12.47
2023-02-19T05:01:45.710Z,12.50
2023-02-19T05:04:12.980Z,12.50
2023-02-19T05:06:40.135Z,12.54
2023-02-19T05:09:07.074Z,12.50
2023-02-19T05:11:35.743Z,12.50
2023-02-19T05:14:02.584Z,12.50
2023-02-19T05:16:31.568Z,12.50
2023-02-19T05:18:58.621Z,12.52
2023-02-19T05:21:26.053Z,12.43
2023-02-19T05:23:53.037Z,12.35
2023-02-19T05:26:27.798Z,12.35
2023-02-19T05:28:56.101Z,12.26
2023-02-19T05:31:23.710Z,12.21
2023-02-19T05:33:53.045Z,12.19
2023-02-19T05:36:21.987Z,12.19
2023-02-19T05:38:53.484Z,12.21
2023-02-19T05:41:25.197Z,12.13
2023-02-19T05:43:52.711Z,12.11
2023-02-19T05:46:24.362Z,12.15
2023-02-19T05:48:52.882Z,12.18
2023-02-19T05:51:23.074Z,12.18
2023-02-19T05:53:51.735Z,12.16
2023-02-19T05:56:33.337Z,12.22
2023-02-19T05:59:14.052Z,12.21
2023-02-19T06:04:56.633Z,12.21
2023-02-19T06:07:34.576Z,12.16
2023-02-19T06:10:13.324Z,12.16
2023-02-19T06:12:53.354Z,12.13
2023-02-19T06:15:30.326Z,12.08
2023-02-19T06:18:08.526Z,11.99
2023-02-19T06:20:45.900Z,11.92
2023-02-19T06:23:22.796Z,11.91
2023-02-19T06:26:10.903Z,11.92
2023-02-19T06:28:50.908Z,11.82
2023-02-19T06:31:28.140Z,11.75
2023-02-19T06:34:08.395Z,11.71
2023-02-19T06:36:45.249Z,11.67
2023-02-19T06:39:22.298Z,11.68
2023-02-19T06:41:59.195Z,11.71
2023-02-19T06:44:35.655Z,11.71
2023-02-19T06:47:12.619Z,11.61
2023-02-19T06:49:51.003Z,11.48
2023-02-19T06:52:28.382Z,11.38
2023-02-19T06:55:05.931Z,11.43
2023-02-19T06:57:42.816Z,11.37
2023-02-19T07:00:20.227Z,11.31
2023-02-19T07:03:04.498Z,11.35
2023-02-19T07:05:44.211Z,11.43
2023-02-19T07:08:21.579Z,11.45
2023-02-19T07:10:59.249Z,11.50
2023-02-19T07:13:33.856Z,11.51
2023-02-19T07:16:12.136Z,11.65
2023-02-19T07:18:49.836Z,11.67
2023-02-19T07:21:29.234Z,11.67
2023-02-19T07:24:06.827Z,11.71
2023-02-19T07:26:43.509Z,11.71
2023-02-19T07:29:20.590Z,11.67
2023-02-19T07:31:57.614Z,11.71
2023-02-19T07:34:43.466Z,11.75
2023-02-19T07:37:22.585Z,11.77
2023-02-19T07:39:59.478Z,11.70
2023-02-19T07:42:37.529Z,11.78
2023-02-19T07:45:16.150Z,11.85
2023-02-19T07:47:53.404Z,11.91
2023-02-19T07:50:30.283Z,11.81
2023-02-19T07:53:09.464Z,11.85
2023-02-19T07:55:46.436Z,11.81
2023-02-19T07:58:26.706Z,11.85
2023-02-19T08:01:09.562Z,11.82
2023-02-19T08:03:49.429Z,11.86
2023-02-19T08:06:27.760Z,11.95
2023-02-19T08:09:07.179Z,11.95
2023-02-19T08:11:44.200Z,11.95
2023-02-19T08:14:25.680Z,12.11
2023-02-19T08:17:02.511Z,12.23
2023-02-19T08:19:39.627Z,12.30
2023-02-19T08:22:16.726Z,12.46
2023-02-19T08:24:55.414Z,12.68
2023-02-19T08:27:32.561Z,12.90
2023-02-19T08:30:10.747Z,13.14
2023-02-19T08:32:47.633Z,13.31
2023-02-19T08:35:24.960Z,13.46
2023-02-19T08:38:01.876Z,13.59
2023-02-19T08:40:42.626Z,13.87
2023-02-19T08:43:19.447Z,14.12
2023-02-19T08:45:56.268Z,14.24
2023-02-19T08:48:33.817Z,14.31
2023-02-19T08:51:12.317Z,14.27
2023-02-19T08:53:49.735Z,14.33
2023-02-19T08:56:28.207Z,14.34
2023-02-19T08:59:05.518Z,14.41
2023-02-19T09:01:42.470Z,14.67
2023-02-19T09:07:20.376Z,15.18
2023-02-19T09:09:57.434Z,15.30
2023-02-19T09:12:35.655Z,15.39
2023-02-19T09:15:12.445Z,15.59
2023-02-19T09:17:51.700Z,15.61
2023-02-19T09:20:28.561Z,15.76
2023-02-19T09:23:05.818Z,15.81
2023-02-19T09:25:42.918Z,15.89
2023-02-19T09:28:21.338Z,16.14
2023-02-19T09:31:03.998Z,16.49
2023-02-19T09:33:44.816Z,16.77
2023-02-19T09:36:22.792Z,17.12
2023-02-19T09:39:00.014Z,17.51
2023-02-19T09:41:43.806Z,17.85
2023-02-19T09:44:32.204Z,18.13
2023-02-19T09:47:17.645Z,18.08
2023-02-19T09:49:59.654Z,18.22
2023-02-19T09:52:44.154Z,18.45
2023-02-19T09:55:32.023Z,18.64
2023-02-19T09:58:22.294Z,18.84
2023-02-19T10:01:31.061Z,19.08
2023-02-19T10:04:10.751Z,19.34
2023-02-19T10:06:50.741Z,19.57
2023-02-19T10:09:30.911Z,19.75
2023-02-19T10:12:15.783Z,19.90
2023-02-19T10:14:58.474Z,20.01
2023-02-19T10:17:36.911Z,19.87
2023-02-19T10:20:17.120Z,19.79
2023-02-19T10:23:01.157Z,19.85
2023-02-19T10:25:46.300Z,19.85
2023-02-19T10:28:26.351Z,19.82
2023-02-19T10:31:13.530Z,19.89
2023-02-19T10:33:54.664Z,20.03
2023-02-19T10:36:36.515Z,20.00
2023-02-19T10:39:35.339Z,19.83
2023-02-19T10:42:21.472Z,19.79
2023-02-19T10:45:02.352Z,20.03
2023-02-19T10:47:38.020Z,20.33
2023-02-19T10:50:27.759Z,20.68
2023-02-19T10:53:05.304Z,20.61
2023-02-19T10:55:41.270Z,20.70
2023-02-19T10:58:28.718Z,20.82
2023-02-19T11:01:18.620Z,20.84
2023-02-19T11:07:20.476Z,20.99
2023-02-19T11:09:59.378Z,21.15
2023-02-19T11:12:36.364Z,21.36
2023-02-19T11:15:22.710Z,21.59
2023-02-19T11:18:05.035Z,21.77
2023-02-19T11:20:49.078Z,21.80
2023-02-19T11:23:31.358Z,21.63
2023-02-19T11:26:19.306Z,21.59
2023-02-19T11:28:58.333Z,21.49
2023-02-19T11:31:35.209Z,21.50
2023-02-19T11:34:29.799Z,21.62
2023-02-19T11:37:13.892Z,21.73
2023-02-19T11:43:00.567Z,21.70
2023-02-19T11:45:47.854Z,21.63
2023-02-19T11:48:51.902Z,21.82
2023-02-19T11:51:58.627Z,21.98
2023-02-19T11:54:50.183Z,22.11
2023-02-19T11:57:43.205Z,22.25
2023-02-19T12:00:26.536Z,22.10
2023-02-19T12:03:26.636Z,21.96
2023-02-19T12:06:23.170Z,21.92
2023-02-19T12:09:30.289Z,22.14
2023-02-19T12:12:26.009Z,22.27
2023-02-19T12:15:39.830Z,22.41
2023-02-19T12:18:50.032Z,22.58
2023-02-19T12:21:44.190Z,22.68
2023-02-19T12:25:11.161Z,22.71
2023-02-19T12:28:03.294Z,22.64
2023-02-19T12:31:14.972Z,22.65
2023-02-19T12:34:31.338Z,22.58
2023-02-19T12:37:19.835Z,22.14
2023-02-19T12:40:17.315Z,21.77
2023-02-19T12:43:02.461Z,21.67
2023-02-19T12:45:36.352Z,21.59
2023-02-19T12:48:14.678Z,21.54
2023-02-19T12:50:44.821Z,21.47
2023-02-19T12:53:32.555Z,21.49
2023-02-19T12:56:05.480Z,21.31
2023-02-19T12:58:41.091Z,21.01
2023-02-19T13:01:14.127Z,20.90
2023-02-19T13:03:51.319Z,20.88
2023-02-19T13:06:35.388Z,20.82
2023-02-19T13:09:08.241Z,20.77
2023-02-19T13:11:41.705Z,20.75
2023-02-19T13:14:19.154Z,20.61
2023-02-19T13:16:55.751Z,20.48
2023-02-19T13:19:24.346Z,20.43
2023-02-19T13:22:03.745Z,20.20
2023-02-19T13:24:36.596Z,20.17
2023-02-19T13:28:12.627Z,20.36
2023-02-19T13:31:12.610Z,20.43
2023-02-19T13:33:55.956Z,20.52
2023-02-19T13:36:28.502Z,20.51
2023-02-19T13:38:57.574Z,20.55
2023-02-19T13:41:30.814Z,20.37
2023-02-19T13:44:02.870Z,20.29
2023-02-19T13:46:38.518Z,20.23
2023-02-19T13:49:40.812Z,19.80
2023-02-19T13:52:41.472Z,19.36
2023-02-19T13:55:48.935Z,18.90
2023-02-19T13:58:52.208Z,18.73
2023-02-19T14:01:19.576Z,18.73
2023-02-19T14:03:54.348Z,18.88
2023-02-19T14:06:21.755Z,18.83
2023-02-19T14:08:54.826Z,19.00
2023-02-19T14:12:04.642Z,19.38
2023-02-19T14:14:36.466Z,19.55
2023-02-19T14:17:25.957Z,19.72
2023-02-19T14:19:56.653Z,19.51
2023-02-19T14:22:58.265Z,18.96
2023-02-19T14:25:36.078Z,18.42
2023-02-19T14:28:20.431Z,18.12
2023-02-19T14:30:53.286Z,17.82
2023-02-19T14:33:24.822Z,17.61
2023-02-19T14:35:58.742Z,17.55
2023-02-19T14:38:30.247Z,17.61
2023-02-19T14:41:01.124Z,17.73
2023-02-19T14:43:30.626Z,17.84
2023-02-19T14:46:02.395Z,17.92
2023-02-19T14:48:34.744Z,17.85
2023-02-19T14:51:08.152Z,17.77
2023-02-19T14:53:41.591Z,17.84
2023-02-19T14:56:23.419Z,17.96
2023-02-19T14:59:08.175Z,17.81
2023-02-19T15:01:35.142Z,17.51
2023-02-19T15:04:02.159Z,17.48
2023-02-19T15:06:30.183Z,17.40
2023-02-19T15:09:02.327Z,17.19
2023-02-19T15:11:33.252Z,17.13
2023-02-19T15:14:04.855Z,16.79
2023-02-19T15:16:35.040Z,16.62
2023-02-19T15:19:07.446Z,16.62
2023-02-19T15:21:39.359Z,16.61
2023-02-19T15:24:07.310Z,16.48
2023-02-19T15:26:38.950Z,16.36
2023-02-19T15:29:12.856Z,16.31
2023-02-19T15:31:46.213Z,16.20
2023-02-19T15:34:19.223Z,15.96
2023-02-19T15:36:47.940Z,15.70
2023-02-19T15:39:22.280Z,15.63
2023-02-19T15:42:00.073Z,15.70
2023-02-19T15:44:38.406Z,15.56
2023-02-19T15:47:15.104Z,15.54
2023-02-19T15:49:53.121Z,15.54
2023-02-19T15:52:39.167Z,15.60
2023-02-19T15:55:26.268Z,15.52
2023-02-19T15:58:07.687Z,15.44
2023-02-19T16:00:41.368Z,15.29
2023-02-19T16:03:18.128Z,15.40
2023-02-19T16:05:45.286Z,15.50
2023-02-19T16:08:20.873Z,15.53
2023-02-19T16:10:56.406Z,15.38
2023-02-19T16:13:29.877Z,15.43
2023-02-19T16:16:06.141Z,15.46
2023-02-19T16:18:35.114Z,15.40
2023-02-19T16:21:08.252Z,15.44
2023-02-19T16:23:36.011Z,15.32
2023-02-19T16:26:03.477Z,15.26
2023-02-19T16:28:38.334Z,15.16
2023-02-19T16:31:08.421Z,15.12
2023-02-19T16:33:39.426Z,15.15
2023-02-19T16:36:37.334Z,15.13
2023-02-19T16:39:16.219Z,15.06
2023-02-19T16:42:17.188Z,14.87
2023-02-19T16:44:49.177Z,14.71
2023-02-19T16:47:33.407Z,14.77
2023-02-19T16:50:04.185Z,14.61
2023-02-19T16:52:31.492Z,14.51
2023-02-19T16:54:58.746Z,14.41
2023-02-19T16:57:25.677Z,14.36
2023-02-19T16:59:53.910Z,14.31
2023-02-19T17:02:24.325Z,14.34
2023-02-19T17:04:52.265Z,14.19
2023-02-19T17:07:19.527Z,14.26
2023-02-19T17:09:46.681Z,14.23
2023-02-19T17:12:16.470Z,14.23
2023-02-19T17:14:44.063Z,14.14
2023-02-19T17:17:12.441Z,14.07
2023-02-19T17:19:39.410Z,13.96
2023-02-19T17:22:07.495Z,13.91
2023-02-19T17:24:34.596Z,13.91
2023-02-19T17:27:02.019Z,13.96
2023-02-19T17:29:28.933Z,13.97
2023-02-19T17:31:56.101Z,13.90
2023-02-19T17:34:24.417Z,13.95
2023-02-19T17:36:51.213Z,13.89
2023-02-19T17:39:18.234Z,13.78
2023-02-19T17:41:45.362Z,13.89
2023-02-19T17:44:12.335Z,13.99
2023-02-19T17:46:39.502Z,14.02
2023-02-19T17:49:06.939Z,14.05
2023-02-19T17:51:35.232Z,14.13
2023-02-19T17:54:02.241Z,14.09
2023-02-19T17:56:29.386Z,14.12
2023-02-19T17:58:57.945Z,14.14
2023-02-19T18:01:25.268Z,14.13
2023-02-19T18:03:52.138Z,14.14
2023-02-19T18:06:19.760Z,14.09
2023-02-19T18:08:50.678Z,14.09
2023-02-19T18:11:19.054Z,13.99
2023-02-19T18:13:46.217Z,13.82
2023-02-19T18:16:13.096Z,13.95
2023-02-19T18:18:40.744Z,14.03
2023-02-19T18:21:08.782Z,14.09
2023-02-19T18:23:36.052Z,14.03
2023-02-19T18:26:09.092Z,14.02
2023-02-19T18:28:38.544Z,13.93
2023-02-19T18:31:09.546Z,13.96
2023-02-19T18:33:36.495Z,13.85
2023-02-19T18:36:09.448Z,13.90
2023-02-19T18:38:36.274Z,13.80
2023-02-19T18:41:04.995Z,13.68
2023-02-19T18:43:31.913Z,13.66
2023-02-19T18:45:58.968Z,13.62
2023-02-19T18:48:25.829Z,13.72
2023-02-19T18:50:52.650Z,13.82
2023-02-19T18:53:19.476Z,13.76
2023-02-19T18:55:46.356Z,13.78
2023-02-19T18:58:14.517Z,13.75
2023-02-19T19:00:41.381Z,13.59
2023-02-19T19:03:08.217Z,13.66
2023-02-19T19:05:35.486Z,13.54
2023-02-19T19:08:02.608Z,13.52
2023-02-19T19:10:29.754Z,13.61
2023-02-19T19:12:57.339Z,13.41
2023-02-19T19:15:26.642Z,13.46
2023-02-19T19:17:53.776Z,13.49
2023-02-19T19:20:22.776Z,13.42
2023-02-19T19:22:52.110Z,13.39
2023-02-19T19:25:20.454Z,13.46
2023-02-19T19:27:47.275Z,13.48
2023-02-19T19:30:15.130Z,13.42
2023-02-19T19:32:43.318Z,13.54
2023-02-19T19:35:10.875Z,13.58
2023-02-19T19:37:37.719Z,13.58
2023-02-19T19:40:06.772Z,13.49
2023-02-19T19:42:33.569Z,13.48
2023-02-19T19:45:00.708Z,13.42
2023-02-19T19:47:28.217Z,13.48
2023-02-19T19:49:56.577Z,13.39
2023-02-19T19:52:23.877Z,13.39
2023-02-19T19:54:50.675Z,13.42
2023-02-19T19:57:17.509Z,13.51
2023-02-19T19:59:48.410Z,13.51
2023-02-19T20:02:15.533Z,13.42
2023-02-19T20:04:42.826Z,13.35
2023-02-19T20:07:11.283Z,13.35
2023-02-19T20:09:38.211Z,13.29
2023-02-19T20:12:05.883Z,13.18
2023-02-19T20:14:33.201Z,13.08
2023-02-19T20:17:00.879Z,13.03
2023-02-19T20:19:27.715Z,13.07
2023-02-19T20:21:54.766Z,13.14
2023-02-19T20:24:27.197Z,13.14
2023-02-19T20:26:56.956Z,13.11
2023-02-19T20:29:23.923Z,13.10
2023-02-19T20:31:51.893Z,13.10
2023-02-19T20:34:19.204Z,13.03
2023-02-19T20:36:48.584Z,12.97
2023-02-19T20:39:17.634Z,12.94
2023-02-19T20:41:47.543Z,13.05
2023-02-19T20:44:14.970Z,13.00
2023-02-19T20:46:42.233Z,13.05
2023-02-19T20:49:09.570Z,12.81
2023-02-19T20:51:43.547Z,12.81
2023-02-19T20:54:10.468Z,12.79
2023-02-19T20:56:37.663Z,12.81
2023-02-19T20:59:06.042Z,12.87
2023-02-19T21:01:32.926Z,12.64
2023-02-19T21:03:59.812Z,12.87
2023-02-19T21:06:26.696Z,12.70
2023-02-19T21:08:53.845Z,12.49
2023-02-19T21:11:20.674Z,12.43
2023-02-19T21:13:47.545Z,12.61
2023-02-19T21:16:16.489Z,12.66
2023-02-19T21:18:43.571Z,12.63
2023-02-19T21:21:10.515Z,12.77
2023-02-19T21:23:37.560Z,12.86
2023-02-19T21:26:05.582Z,12.94
2023-02-19T21:28:32.566Z,12.84
2023-02-19T21:30:59.586Z,12.70
2023-02-19T21:33:28.012Z,12.59
2023-02-19T21:35:55.246Z,12.67
2023-02-19T21:38:22.153Z,12.73
2023-02-19T21:40:49.023Z,12.72
2023-02-19T21:43:16.028Z,12.73
2023-02-19T21:45:43.184Z,12.79
2023-02-19T21:48:10.063Z,12.77
2023-02-19T21:50:38.262Z,12.74
2023-02-19T21:53:05.293Z,12.66
2023-02-19T21:55:32.625Z,12.59
2023-02-19T21:57:59.593Z,12.57
2023-02-19T22:00:26.409Z,12.64
2023-02-19T22:02:53.447Z,12.57
2023-02-19T22:05:20.315Z,12.52
2023-02-19T22:07:49.110Z,12.53
2023-02-19T22:10:15.918Z,12.33
2023-02-19T22:12:43.076Z,12.49
2023-02-19T22:15:10.270Z,12.33
2023-02-19T22:17:37.643Z,12.35
2023-02-19T22:20:06.917Z,12.43
2023-02-19T22:22:33.911Z,12.49
2023-02-19T22:25:27.123Z,12.37
2023-02-19T22:27:53.984Z,12.42
2023-02-19T22:30:20.957Z,12.46
2023-02-19T22:32:47.847Z,12.53
2023-02-19T22:35:15.817Z,12.47
2023-02-19T22:37:43.192Z,12.59
2023-02-19T22:40:11.211Z,12.64
2023-02-19T22:42:39.590Z,12.88
2023-02-19T22:45:07.563Z,12.86
2023-02-19T22:47:34.771Z,12.66
2023-02-19T22:50:01.835Z,12.83
2023-02-19T22:52:29.003Z,12.63
2023-02-19T22:54:56.140Z,12.57
2023-02-19T22:57:23.297Z,12.64
2023-02-19T22:59:51.863Z,12.53
2023-02-19T23:02:18.693Z,12.37
2023-02-19T23:04:45.515Z,12.53
2023-02-19T23:07:12.373Z,12.32
2023-02-19T23:09:39.330Z,12.52
2023-02-19T23:12:10.594Z,12.52
2023-02-19T23:14:37.744Z,12.36
2023-02-19T23:17:08.060Z,12.43
2023-02-19T23:19:35.173Z,12.64
2023-02-19T23:22:02.268Z,12.60
2023-02-19T23:24:29.327Z,12.61
2023-02-19T23:26:56.232Z,12.70
2023-02-19T23:29:26.253Z,12.80
2023-02-19T23:31:54.617Z,12.53
2023-02-19T23:34:23.692Z,12.61
2023-02-19T23:36:51.043Z,12.45
2023-02-19T23:39:21.730Z,12.59
2023-02-19T23:41:51.429Z,12.36
2023-02-19T23:44:20.584Z,12.32
2023-02-19T23:46:48.017Z,12.43
2023-02-19T23:49:15.669Z,12.67
2023-02-19T23:51:44.326Z,12.68
2023-02-19T23:54:12.056Z,12.72
2023-02-19T23:56:39.081Z,12.68
2023-02-19T23:59:06.267Z,12.43
